ハルビン の空港の天気 - METARとTAF

ハルビン太平国際空港 ( ZYHB / HRB ) - 中国 黒竜江省ハルビン市
飛行場実況気象(Metar)
観測時間10/22 00:00 CST (10/21 16:00 UTC)
風向・風速南西 5m/s
視程10km以上
天気現象
なし
気温0℃
湿度80%
気圧1011hPa
METARZYHB 211600Z 22005MPS CAVOK 00/M03 Q1011 NOSIG
過去の天気等 Google飛行場航空写真 Wunderground天気予報

過去48時間のMETAR

飛行場予報(TAF)
発表時間: 10/21 17:02 CST (10/21 09:02 UTC)
予報対象時間: 21日20時 CST ~ 22日20時 CST
風向・風速西 4m/s
視程6000m
全天の4割程度の雲 雲底高度 910m
TAF ZYHB 210902Z 2112/2212 28004MPS 6000 SCT030 TX08/2206Z TN01/2120Z